In Rescue
 
Open Full Screen Window  High Contrast Mode
Wind Gusting 00 knots
05
May 25, 2022 9:29 PM CDT
Weather Information
Wind Direction
  040 °
Wind Speed
  05 kt (6 mph)
Wind Gust
  00 kt (0 mph)
Altimeter
29.96 in
Visibility
10 SM
Temperature
09° C
48° F
Dewpoint
06° C
43° F
Humidity
82%
1hr Rain Fall
00.00 in.
24hr Rain Fall
00.00 in.
Sky Condition
Overcast @ 2,700 ft
Scattered @ 1,600 ft
MVFR

METAR KY49 260229Z AUTO 04005KT 10SM SCT016 OVC027 09/06 A2996 RMK AO2 T00900061

FAA Disclaimer: The data displayed is for advisory purposes only and is not to be used for flight planning or operations.